Beaver Dam, Wisconsin
Current Conditions -  °F | °C
As of 12:35 AM on Friday 31 Oct 2014 (Local Time) from KUNU Reporting Station
Overcast Overcast  
Wind Chill: 35°   Ceiling: 6000
Heat Index: 42°   Visibility: 10mi
Dew Point: 31°   Wind: 12mph
Humidity: 67%   Direction: 310°NW
Pressure: 30.05"   Gusts: 22mph
Location:  43.46°N, 88.83°W
Report Text: KUNU 310535Z AUTO 31010G19KT 10SM SCT032 OVC060 05/00 A3005 RMK AO2 T00541003
Loading
Personal Weather Stations






























Interactive Weather Map New forecast layout! Learn more

10-Day Weather Forecast

Advertisements
Track Severe Weather on mobile